• Join FlightAware (Why Join?)
  • Login
  • US Flag 
03:41PM EDT


 

Airport Tracker/Info


-or-


 

Live Flight TrackerFlight Track Log ✈ N414AV ✈ 23-Oct-2013 ✈ KLOU - KEYE

Flight Track Log - Related Links

Times and Time Zones

All times are in EDT time to prevent confusion due to time zone crossing. See the N414AV flight status page for this flight to view local times or setup timezone preferences in your user account.

Time Position Orientation Groundspeed Altitude Reporting Facility
EDT Latitude Longitude Course Direction KTS MPH feet Rate Location/Type
04:37PM 38.2667 -85.6667 334° Northwest 130 150 2,500  Level Louisville TRACON
04:38PM 38.3214 -85.6864 344° North 126 145 3,700 900 Climbing Indianapolis Center
04:39PM 38.3553 -85.7044 337° Northwest 132 152 4,800 1,140 Climbing Indianapolis Center
04:40PM 38.3861 -85.7214 337° Northwest 125 144 6,100 1,200 Climbing Indianapolis Center
04:41PM 38.4328 -85.7427 334° Northwest  Level Estimated
04:41PM 38.4103 -85.7392 330° Northwest 107 123 7,400  Level Indianapolis Center
04:42PM 38.4711 -85.7669 334° Northwest  Level FlightAware Approximate
04:42PM 38.4394 -85.7558 336° Northwest 111 128 7,900  Level Indianapolis Center
04:43PM 38.4828 -85.7769 339° North 155 178 8,000  Climbing Indianapolis Center
04:44PM 38.5331 -85.8050 336° Northwest 164 189 8,000  Level Indianapolis Center
04:45PM 38.5747 -85.8286 336° Northwest 164 189 8,000  Level Indianapolis Center
04:46PM 38.6175 -85.8486 340° North 163 188 8,000 300 Level Indianapolis Center
04:47PM 38.6672 -85.8367 11° North 167 192 8,700 780 Climbing Indianapolis Center
04:48PM 38.6983 -85.8364 360° North 124 143 9,700 600 Climbing Indianapolis Center
04:49PM 38.7311 -85.8275 12° North 120 138 10,000 120 Climbing Indianapolis Center
04:50PM 38.7714 -85.8278 360° North 138 159 10,000  Level Indianapolis Center
04:51PM 38.8144 -85.8272 North 151 174 10,000  Level Indianapolis Center
04:52PM 38.8569 -85.8250 North 153 176 10,000  Level Indianapolis Center
04:54PM 38.9097 -85.8172 North 158 182 10,000  Level Indianapolis Center
04:55PM 38.9553 -85.8139 North 162 186 10,000  Level Indianapolis Center
04:56PM 39.0006 -85.8078 North 164 189 10,000  Level Indianapolis Center
04:57PM 39.0447 -85.8017 North 162 186 10,000 -300 Level Indianapolis Center
04:58PM 39.0931 -85.7981 North 167 192 9,500 -600 Descending Indianapolis Center
04:59PM 39.1569 -85.7894 North 181 208 8,800 -720 Descending Indianapolis Center
05:00PM 39.2133 -85.7817 North 196 226 8,100 -780 Descending Indianapolis Center
05:01PM 39.2697 -85.7747 North 202 232 7,200 -900 Descending Indianapolis Center
05:02PM 39.3261 -85.7719 North 203 234 6,300 -600 Descending Indianapolis Center
05:03PM 39.3686 -85.8097 326° Northwest 188 216 6,000 -180 Descending Indianapolis Center
05:04PM 39.4011 -85.8664 307° West 167 192 6,000 -360 Level Indianapolis Center
05:05PM 39.4317 -85.9114 311° West 166 191 5,300 -780 Descending Indianapolis Center
05:06PM 39.4714 -85.9525 321° Northwest 175 201 4,500 -660 Descending Indianapolis Center
05:07PM 39.5078 -85.9961 317° Northwest 178 205 4,000 -240 Descending Indianapolis Center
05:08PM 39.5397 -86.0361 316° Northwest 171 197 4,000  Level Indianapolis Center
05:09PM 39.5706 -86.0728 317° Northwest 160 184 4,000  Level Indianapolis Center
05:10PM 39.6081 -86.1183 317° Northwest 156 180 4,000  Level Indianapolis Center
05:11PM 39.6394 -86.1572 316° Northwest 156 180 4,000  Level Indianapolis Center
05:12PM 39.6711 -86.1972 316° Northwest 157 181 4,100  Climbing Indianapolis Center
05:13PM 39.7003 -86.2389 312° West 157 181 4,000 -60 Descending Indianapolis Center
05:14PM 39.7328 -86.2778 317° Northwest 157 181 4,000 -360 Level Indianapolis Center
05:15PM 39.7647 -86.3214 314° West 156 180 3,300 -540 Descending Indianapolis Center
05:16PM 39.8064 -86.3683 319° Northwest 158 182 3,000 -300 Descending Indianapolis Center
05:18PM 39.8278 -86.3036 322° Northwest  Level Estimated
05:25PM 39.8308 -86.2944 322° Northwest  Level Estimated
05:26PM 39.8308 -86.2944 322° Northwest  Level Estimated